METAR Data
IDs: Format: Raw Decoded Include TAF

Data at: 1931 UTC 21 Sep 2021

METAR for:KHCR (Heber City Muni, UT, US)
Text:KHCR 211915Z AUTO 00000KT 10SM CLR 17/M03 A3050 RMK AO2
Temperature: 17.0°C ( 63°F)
Dewpoint: -3.0°C ( 27°F) [RH = 25%]
Pressure (altimeter):30.50 inches Hg (1032.9 mb)
Winds:calm
Visibility:10 or more sm (16+ km)
Ceiling:at least 12,000 feet AGL
Clouds:sky clear below 12,000 feet AGL
QC Flag:automated observation with no human augmentation